Time;durP1;ratioP1;P1;durP2;ratioP2;P2;SDS_P1;SDS_P2;PMS_P1;PMS_P2;Temp;Humidity;BMP_temperature;BMP_pressure;BME280_temperature;BME280_humidity;BME280_pressure;Samples;Min_cycle;Max_cycle;Signal;HPM_P1;HPM_P2
2022/10/22 00:01:54;;;;;;;1.60;1.00;;;13.70;99.90;;;;;;5009235;28;20992;-72
2022/10/22 00:04:19;;;;;;;1.70;1.10;;;13.70;99.90;;;;;;5028116;28;20900;-72
2022/10/22 00:06:45;;;;;;;1.10;1.00;;;13.70;99.90;;;;;;5028332;28;20392;-72
2022/10/22 00:09:12;;;;;;;1.50;1.00;;;13.70;99.90;;;;;;5028092;28;20403;-72
2022/10/22 00:11:38;;;;;;;3.50;1.20;;;13.70;99.90;;;;;;5010238;28;20449;-72
2022/10/22 00:14:04;;;;;;;1.50;1.00;;;13.70;99.90;;;;;;5006983;28;20385;-72
2022/10/22 00:16:30;;;;;;;3.88;1.20;;;13.70;99.90;;;;;;5008460;28;20392;-72
2022/10/22 00:18:55;;;;;;;1.60;1.20;;;13.70;99.90;;;;;;5008415;28;20412;-71
2022/10/22 00:21:21;;;;;;;1.80;1.10;;;13.70;99.90;;;;;;5017824;28;20487;-71
2022/10/22 00:23:47;;;;;;;1.73;1.00;;;13.70;99.90;;;;;;5008297;28;20426;-71
2022/10/22 00:26:12;;;;;;;1.40;0.90;;;13.70;99.90;;;;;;5008093;28;20919;-72
2022/10/22 00:28:38;;;;;;;0.80;0.80;;;13.70;99.90;;;;;;5018531;28;20411;-71
2022/10/22 00:31:05;;;;;;;1.80;0.90;;;13.60;99.90;;;;;;5027567;28;20403;-72
2022/10/22 00:33:30;;;;;;;1.00;0.90;;;13.60;99.90;;;;;;5027827;28;20398;-71
2022/10/22 00:35:56;;;;;;;2.23;1.10;;;13.60;99.90;;;;;;5027856;28;20380;-71
2022/10/22 00:38:22;;;;;;;1.60;1.00;;;13.70;99.90;;;;;;5027153;28;20399;-71
2022/10/22 00:40:48;;;;;;;1.30;0.90;;;13.70;99.90;;;;;;5019555;28;20454;-72
2022/10/22 00:43:15;;;;;;;2.65;0.90;;;13.60;99.90;;;;;;5006189;28;20426;-72
2022/10/22 00:45:41;;;;;;;2.60;1.08;;;13.60;99.90;;;;;;5007960;28;20409;-72
2022/10/22 00:48:13;;;;;;;0.80;0.80;;;13.60;99.90;;;;;;5007841;28;20458;-72
2022/10/22 00:50:46;;;;;;;1.40;0.80;;;13.60;99.90;;;;;;5012595;28;20807;-71
2022/10/22 00:53:21;;;;;;;3.47;0.90;;;13.60;99.90;;;;;;5027690;28;20435;-72
2022/10/22 00:55:51;;;;;;;1.60;1.10;;;13.60;99.90;;;;;;5007919;28;20397;-72
2022/10/22 00:58:20;;;;;;;3.95;1.15;;;13.60;99.90;;;;;;5007774;28;20762;-72
2022/10/22 01:00:46;;;;;;;1.05;0.95;;;13.60;99.90;;;;;;5007804;28;20388;-72
2022/10/22 01:03:12;;;;;;;2.10;1.03;;;13.60;99.90;;;;;;5021020;28;20434;-71
2022/10/22 01:05:50;;;;;;;2.28;0.90;;;13.60;99.90;;;;;;5014279;28;20416;-71
2022/10/22 01:08:30;;;;;;;3.60;1.13;;;13.50;99.90;;;;;;5012725;28;20407;-71
2022/10/22 01:11:15;;;;;;;1.20;0.80;;;13.50;99.90;;;;;;5027281;28;20383;-71
2022/10/22 01:13:54;;;;;;;2.60;1.08;;;13.60;99.90;;;;;;5027224;28;20422;-71
2022/10/22 01:16:26;;;;;;;1.00;0.90;;;13.60;99.90;;;;;;5026435;28;20471;-71
2022/10/22 01:19:03;;;;;;;2.17;1.10;;;13.60;99.90;;;;;;5027349;28;20390;-71
2022/10/22 01:21:37;;;;;;;1.20;0.80;;;13.50;99.90;;;;;;4993660;28;20449;-71
2022/10/22 01:24:11;;;;;;;1.80;0.70;;;13.60;99.90;;;;;;5007338;28;20389;-71
2022/10/22 01:27:04;;;;;;;1.00;0.85;;;13.60;99.90;;;;;;5007194;28;20404;-71
2022/10/22 01:29:39;;;;;;;0.82;0.70;;;13.60;99.90;;;;;;5007562;28;20469;-71
2022/10/22 01:32:11;;;;;;;0.90;0.60;;;13.50;99.90;;;;;;5007419;28;20476;-71
2022/10/22 01:34:41;;;;;;;3.65;0.93;;;13.60;99.90;;;;;;5005924;28;20442;-71
2022/10/22 01:37:08;;;;;;;2.47;0.60;;;13.60;99.90;;;;;;5014161;28;20391;-71
2022/10/22 01:39:37;;;;;;;1.50;0.70;;;13.50;99.90;;;;;;5027071;28;20394;-71
2022/10/22 01:42:02;;;;;;;1.60;0.70;;;13.60;99.90;;;;;;5027125;28;20757;-71
2022/10/22 01:44:31;;;;;;;1.30;0.77;;;13.60;99.90;;;;;;5007569;28;20491;-71
2022/10/22 01:47:25;;;;;;;1.70;0.60;;;13.50;99.90;;;;;;5011889;28;20399;-71
2022/10/22 01:50:20;;;;;;;0.82;0.68;;;13.60;99.90;;;;;;5026808;28;20399;-71
2022/10/22 01:52:55;;;;;;;1.30;1.20;;;13.70;99.90;;;;;;5014105;28;20401;-72
2022/10/22 01:55:44;;;;;;;2.72;1.40;;;13.70;99.90;;;;;;5010674;28;20397;-72
2022/10/22 01:58:13;;;;;;;2.60;1.95;;;13.70;99.90;;;;;;5010418;28;20408;-72
2022/10/22 02:00:49;;;;;;;3.25;2.75;;;13.70;99.90;;;;;;5009394;28;20408;-72
2022/10/22 02:03:23;;;;;;;2.92;2.63;;;13.70;99.90;;;;;;5025816;28;20391;-73
2022/10/22 02:05:55;;;;;;;3.13;2.83;;;13.70;99.90;;;;;;5004842;28;20384;-72
2022/10/22 02:08:24;;;;;;;3.20;2.10;;;13.70;99.90;;;;;;5019816;28;20419;-72
2022/10/22 02:10:52;;;;;;;2.92;2.55;;;13.70;99.90;;;;;;5028524;28;20395;-72
2022/10/22 02:13:23;;;;;;;2.60;2.40;;;13.70;99.90;;;;;;5029740;28;20411;-72
2022/10/22 02:15:51;;;;;;;2.78;2.58;;;13.70;99.90;;;;;;5030056;28;20392;-72
2022/10/22 02:18:19;;;;;;;2.63;2.42;;;13.70;99.90;;;;;;5022550;28;20894;-72
2022/10/22 02:20:45;;;;;;;3.03;2.40;;;13.60;99.90;;;;;;5028632;28;20772;-73
2022/10/22 02:23:11;;;;;;;4.20;2.20;;;13.60;99.90;;;;;;5021209;28;20406;-73
2022/10/22 02:25:41;;;;;;;2.00;1.80;;;13.60;99.90;;;;;;5022957;28;21175;-72
2022/10/22 02:28:24;;;;;;;2.33;1.70;;;13.60;99.90;;;;;;4993272;28;21034;-73
2022/10/22 02:30:59;;;;;;;2.80;1.80;;;13.70;99.90;;;;;;5015874;28;20521;-72
2022/10/22 02:33:39;;;;;;;1.65;1.55;;;13.80;99.90;;;;;;5023738;28;20401;-73
2022/10/22 02:36:06;;;;;;;1.60;1.50;;;13.70;99.90;;;;;;5008578;28;20441;-73
2022/10/22 02:38:34;;;;;;;2.20;2.03;;;13.80;99.90;;;;;;5012354;28;20403;-72
2022/10/22 02:41:00;;;;;;;1.80;1.70;;;13.80;99.90;;;;;;5029768;28;20391;-73
2022/10/22 02:43:28;;;;;;;4.00;1.77;;;13.70;99.90;;;;;;5029521;28;20380;-72
2022/10/22 02:45:53;;;;;;;2.80;1.80;;;13.70;99.90;;;;;;5022405;28;20411;-73
2022/10/22 02:48:19;;;;;;;1.90;1.80;;;13.50;99.90;;;;;;5015544;28;20405;-73
2022/10/22 02:50:44;;;;;;;2.20;2.00;;;13.50;99.90;;;;;;5019796;28;20387;-73
2022/10/22 02:53:10;;;;;;;2.17;1.98;;;13.50;99.90;;;;;;5026987;28;20384;-73
2022/10/22 02:55:35;;;;;;;3.25;2.28;;;13.50;99.90;;;;;;5020564;28;20472;-73
2022/10/22 02:58:01;;;;;;;2.40;2.20;;;13.60;99.90;;;;;;5006707;28;20389;-73
2022/10/22 03:00:27;;;;;;;2.07;1.60;;;13.60;99.90;;;;;;5017783;28;20409;-73
2022/10/22 03:02:53;;;;;;;1.50;1.40;;;13.50;99.90;;;;;;5015792;28;20422;-73
2022/10/22 03:05:18;;;;;;;1.52;1.42;;;13.60;99.90;;;;;;5016549;28;20416;-73
2022/10/22 03:07:44;;;;;;;1.40;1.30;;;13.60;99.90;;;;;;5014542;28;20529;-73
2022/10/22 03:10:09;;;;;;;1.80;1.10;;;13.50;99.90;;;;;;5021003;28;20383;-73
2022/10/22 03:12:35;;;;;;;1.37;1.27;;;13.50;99.90;;;;;;5027441;28;20530;-73
2022/10/22 03:15:00;;;;;;;1.67;1.58;;;13.50;99.90;;;;;;5017034;28;20399;-72
2022/10/22 03:17:26;;;;;;;1.23;1.13;;;13.60;99.90;;;;;;5020291;28;20393;-73
2022/10/22 03:19:52;;;;;;;1.87;1.17;;;13.60;99.90;;;;;;5023620;28;20379;-73
2022/10/22 03:22:24;;;;;;;1.10;0.93;;;13.60;99.90;;;;;;5015556;28;20824;-73
2022/10/22 03:24:53;;;;;;;3.90;1.20;;;13.60;99.90;;;;;;5014461;28;20398;-73
2022/10/22 03:27:20;;;;;;;1.50;1.13;;;13.60;99.90;;;;;;5025696;28;20550;-73
2022/10/22 03:29:49;;;;;;;3.95;1.20;;;13.60;99.90;;;;;;5022168;28;20445;-73
2022/10/22 03:32:14;;;;;;;2.00;1.20;;;13.50;99.90;;;;;;5017798;28;20413;-73
2022/10/22 03:34:40;;;;;;;1.40;1.30;;;13.40;99.90;;;;;;5021173;28;20395;-73
2022/10/22 03:37:05;;;;;;;0.93;0.90;;;13.40;99.90;;;;;;5027630;28;20510;-73
2022/10/22 03:39:33;;;;;;;1.35;1.25;;;13.40;99.90;;;;;;5012812;28;21028;-73
2022/10/22 03:41:59;;;;;;;1.10;1.00;;;13.40;99.90;;;;;;5020576;28;20474;-73
2022/10/22 03:44:25;;;;;;;4.10;1.20;;;13.40;99.90;;;;;;5012844;28;20841;-73
2022/10/22 03:46:51;;;;;;;2.20;1.08;;;13.30;99.90;;;;;;5020331;28;20440;-73
2022/10/22 03:49:16;;;;;;;1.80;1.00;;;13.30;99.90;;;;;;5019282;28;20509;-73
2022/10/22 03:51:42;;;;;;;1.23;1.13;;;13.20;99.90;;;;;;5028874;28;20379;-73
2022/10/22 03:54:07;;;;;;;1.33;1.00;;;13.30;99.90;;;;;;5027831;28;20387;-73
2022/10/22 03:56:33;;;;;;;0.90;0.80;;;13.30;99.90;;;;;;5028789;28;20379;-73
2022/10/22 03:59:00;;;;;;;1.60;1.00;;;13.30;99.90;;;;;;5028539;28;20390;-73
2022/10/22 04:01:27;;;;;;;1.20;1.10;;;13.30;99.90;;;;;;5028745;28;20877;-73
2022/10/22 04:03:53;;;;;;;2.47;1.40;;;13.30;99.90;;;;;;5025732;28;20753;-73
2022/10/22 04:06:19;;;;;;;1.35;1.10;;;13.10;99.90;;;;;;5020344;28;20891;-73
2022/10/22 04:08:45;;;;;;;1.50;0.80;;;13.20;99.90;;;;;;5028433;28;20407;-73
2022/10/22 04:11:12;;;;;;;2.40;1.20;;;13.10;99.90;;;;;;5028602;28;20873;-73
2022/10/22 04:13:38;;;;;;;1.20;0.80;;;13.10;99.90;;;;;;5027554;28;20455;-73
2022/10/22 04:16:07;;;;;;;2.40;1.00;;;13.00;99.90;;;;;;5026506;28;20379;-73
2022/10/22 04:18:33;;;;;;;1.40;1.20;;;13.00;99.90;;;;;;5008987;28;20704;-73
2022/10/22 04:20:58;;;;;;;2.40;1.10;;;13.00;99.90;;;;;;5007341;28;20537;-73
2022/10/22 04:23:24;;;;;;;2.13;1.20;;;12.90;99.90;;;;;;5007073;28;20388;-73
2022/10/22 04:25:55;;;;;;;1.57;1.07;;;12.90;99.90;;;;;;5095789;28;20472;-73
2022/10/22 04:28:21;;;;;;;3.00;1.30;;;12.90;99.90;;;;;;5027405;28;20419;-73
2022/10/22 04:30:46;;;;;;;1.17;1.00;;;12.90;99.90;;;;;;5098921;28;20934;-73
2022/10/22 04:33:12;;;;;;;1.90;1.10;;;12.90;99.90;;;;;;5077783;28;20391;-72
2022/10/22 04:35:38;;;;;;;1.35;0.88;;;12.90;99.90;;;;;;5020097;28;20391;-73
2022/10/22 04:38:04;;;;;;;1.10;1.00;;;12.90;99.90;;;;;;5028039;28;20398;-73
2022/10/22 04:40:29;;;;;;;2.80;1.00;;;12.90;99.90;;;;;;5021322;28;20412;-73
2022/10/22 04:42:55;;;;;;;2.50;1.17;;;12.90;99.90;;;;;;5013813;28;20403;-73
2022/10/22 04:45:21;;;;;;;1.55;1.00;;;12.80;99.90;;;;;;5008181;28;20905;-73
2022/10/22 04:47:46;;;;;;;3.10;1.20;;;12.80;99.90;;;;;;5007017;28;20751;-73
2022/10/22 04:50:12;;;;;;;2.40;1.27;;;12.90;99.90;;;;;;5009473;28;20393;-73
2022/10/22 04:52:38;;;;;;;4.32;1.30;;;12.90;99.90;;;;;;5010589;28;20479;-73
2022/10/22 04:55:03;;;;;;;2.30;1.20;;;12.90;99.90;;;;;;5006989;28;20393;-72
2022/10/22 04:57:30;;;;;;;2.05;1.50;;;12.90;99.90;;;;;;5008133;28;20886;-72
2022/10/22 04:59:55;;;;;;;1.50;1.38;;;12.80;99.90;;;;;;5007970;28;20381;-72
2022/10/22 05:02:21;;;;;;;2.83;1.20;;;12.80;99.90;;;;;;5018380;28;20430;-73
2022/10/22 05:04:46;;;;;;;1.65;1.25;;;12.80;99.90;;;;;;5007917;28;20510;-72
2022/10/22 05:07:12;;;;;;;1.20;1.10;;;12.90;99.90;;;;;;5008025;28;20867;-72
2022/10/22 05:09:38;;;;;;;1.20;1.10;;;12.90;99.90;;;;;;5006573;28;20405;-72
2022/10/22 05:12:05;;;;;;;1.80;1.00;;;12.80;99.90;;;;;;5007972;28;20404;-72
2022/10/22 05:14:31;;;;;;;1.33;1.23;;;12.80;99.90;;;;;;5009865;28;20448;-73
2022/10/22 05:19:32;;;;;;;4.15;2.60;;;12.60;99.90;;;;;;5770617;22;20926;-73
2022/10/22 05:22:02;;;;;;;4.60;2.70;;;12.70;99.90;;;;;;5017625;28;20394;-74
2022/10/22 05:24:47;;;;;;;3.70;3.10;;;12.60;99.90;;;;;;5026795;28;20392;-75
2022/10/22 05:27:13;;;;;;;4.70;3.30;;;12.70;99.90;;;;;;5116235;22;20433;-73
2022/10/22 05:29:39;;;;;;;4.32;2.90;;;13.40;99.90;;;;;;5053772;28;20459;-72
2022/10/22 05:32:04;;;;;;;4.87;2.87;;;12.70;99.90;;;;;;5054328;28;20404;-73
2022/10/22 05:34:32;;;;;;;2.70;1.97;;;12.70;99.90;;;;;;5053890;28;20389;-73
2022/10/22 05:36:57;;;;;;;2.58;2.00;;;12.60;99.90;;;;;;5054334;28;20389;-73
2022/10/22 05:39:23;;;;;;;2.80;1.30;;;12.60;99.90;;;;;;5054224;28;20396;-73
2022/10/22 05:41:48;;;;;;;3.93;1.90;;;12.60;99.90;;;;;;5037358;28;20478;-73
2022/10/22 05:44:14;;;;;;;3.07;1.50;;;12.70;99.90;;;;;;5033990;28;20383;-73
2022/10/22 05:46:40;;;;;;;3.30;1.23;;;12.70;99.90;;;;;;5044736;28;20397;-73
2022/10/22 05:49:06;;;;;;;3.67;1.10;;;12.60;99.90;;;;;;5054031;28;20448;-73
2022/10/22 05:51:34;;;;;;;2.92;1.00;;;12.60;99.90;;;;;;5054095;28;20404;-73
2022/10/22 05:54:02;;;;;;;1.20;1.10;;;12.60;99.90;;;;;;5053609;28;20468;-73
2022/10/22 05:56:30;;;;;;;2.40;1.10;;;12.60;99.90;;;;;;5045347;28;20399;-73
2022/10/22 05:58:56;;;;;;;1.17;0.93;;;12.50;99.90;;;;;;5033951;28;20834;-73
2022/10/22 06:01:26;;;;;;;1.57;1.00;;;12.50;99.90;;;;;;5034024;28;20419;-73
2022/10/22 06:03:56;;;;;;;1.85;1.00;;;12.60;99.90;;;;;;5033409;28;20460;-73
2022/10/22 06:06:38;;;;;;;1.90;0.98;;;12.50;99.90;;;;;;5040311;28;21100;-74
2022/10/22 06:09:13;;;;;;;1.85;1.40;;;12.50;99.90;;;;;;5053415;28;20413;-73
2022/10/22 06:11:39;;;;;;;3.10;1.30;;;12.50;99.90;;;;;;5053789;28;20385;-74
2022/10/22 06:14:04;;;;;;;1.80;1.13;;;12.50;99.90;;;;;;5046478;28;20474;-73
2022/10/22 06:16:31;;;;;;;2.40;1.50;;;12.50;99.90;;;;;;5033638;28;20537;-73
2022/10/22 06:18:59;;;;;;;1.60;1.37;;;12.50;99.90;;;;;;5052264;28;20408;-74
2022/10/22 06:21:25;;;;;;;2.10;1.40;;;12.50;99.90;;;;;;5052161;28;20964;-74
2022/10/22 06:23:50;;;;;;;3.38;1.40;;;12.50;99.90;;;;;;5053267;28;20448;-74
2022/10/22 06:26:16;;;;;;;2.00;1.60;;;12.50;99.90;;;;;;5053377;28;20464;-74
2022/10/22 06:28:42;;;;;;;2.20;1.67;;;12.50;99.90;;;;;;5052534;28;20546;-74
2022/10/22 06:31:08;;;;;;;2.92;1.52;;;12.40;99.90;;;;;;5053473;28;20820;-73
2022/10/22 06:33:40;;;;;;;4.18;1.70;;;12.50;99.90;;;;;;5052967;28;20860;-74
2022/10/22 06:36:08;;;;;;;1.83;1.73;;;12.40;99.90;;;;;;5040753;28;20405;-74
2022/10/22 06:38:34;;;;;;;2.92;1.83;;;12.50;99.90;;;;;;5033544;28;20927;-74
2022/10/22 06:41:11;;;;;;;3.53;1.88;;;12.50;99.90;;;;;;5033240;28;20387;-74
2022/10/22 06:43:37;;;;;;;3.55;1.70;;;12.40;99.90;;;;;;5033029;28;20397;-74
2022/10/22 06:46:08;;;;;;;3.45;1.92;;;12.50;99.90;;;;;;5047531;28;20413;-74
2022/10/22 06:48:36;;;;;;;2.88;1.90;;;12.50;99.90;;;;;;5042813;28;20806;-74
2022/10/22 06:51:03;;;;;;;3.30;1.90;;;12.40;99.90;;;;;;5032590;28;20475;-74
2022/10/22 06:53:29;;;;;;;2.13;1.65;;;12.40;99.90;;;;;;5033339;28;20399;-74
2022/10/22 06:55:54;;;;;;;2.00;1.80;;;12.40;99.90;;;;;;5042946;28;20470;-74
2022/10/22 06:58:20;;;;;;;2.00;1.80;;;12.40;99.90;;;;;;5059473;28;20392;-75
2022/10/22 07:00:46;;;;;;;1.87;1.77;;;12.50;99.90;;;;;;5049292;28;20503;-75
2022/10/22 07:03:12;;;;;;;2.08;1.90;;;12.50;99.90;;;;;;5048694;28;20382;-74
2022/10/22 07:05:38;;;;;;;1.80;1.70;;;12.50;99.90;;;;;;5051421;28;20484;-74
2022/10/22 07:08:04;;;;;;;2.13;1.63;;;12.50;99.90;;;;;;5048057;28;20496;-75
2022/10/22 07:10:30;;;;;;;2.35;1.70;;;12.60;99.90;;;;;;5047388;28;20783;-74
2022/10/22 07:12:55;;;;;;;3.47;1.67;;;12.50;99.90;;;;;;5050162;28;20438;-75
2022/10/22 07:15:21;;;;;;;2.23;1.80;;;12.60;99.90;;;;;;5047438;28;20900;-74
2022/10/22 07:17:46;;;;;;;2.87;1.97;;;12.60;99.90;;;;;;5051460;28;20393;-75
2022/10/22 07:20:12;;;;;;;2.70;1.92;;;12.60;99.90;;;;;;5050380;28;20381;-75
2022/10/22 07:22:37;;;;;;;4.20;1.80;;;12.70;99.90;;;;;;5050631;28;20771;-75
2022/10/22 07:25:03;;;;;;;2.80;2.30;;;12.80;99.90;;;;;;5052219;28;20750;-75
2022/10/22 07:27:29;;;;;;;3.95;2.28;;;12.90;99.90;;;;;;5051206;28;20419;-75
2022/10/22 07:29:54;;;;;;;3.77;2.20;;;13.00;99.90;;;;;;5049429;28;20397;-74
2022/10/22 07:32:20;;;;;;;3.05;2.15;;;13.10;99.90;;;;;;5042148;28;20421;-74
2022/10/22 07:34:45;;;;;;;3.15;2.25;;;13.20;99.90;;;;;;5037691;28;20391;-74
2022/10/22 07:37:11;;;;;;;3.00;2.60;;;13.30;99.90;;;;;;5032038;28;20453;-74
2022/10/22 07:39:36;;;;;;;3.17;2.50;;;13.40;99.90;;;;;;5032126;28;20457;-74
2022/10/22 07:42:02;;;;;;;2.83;2.63;;;13.40;99.90;;;;;;5035785;28;20458;-74
2022/10/22 07:44:28;;;;;;;3.58;2.60;;;13.50;99.90;;;;;;5048228;28;20436;-74
2022/10/22 07:46:53;;;;;;;3.23;2.80;;;13.60;99.90;;;;;;5051678;28;20396;-74
2022/10/22 07:49:19;;;;;;;3.13;2.70;;;13.60;99.90;;;;;;5042644;28;20439;-74
2022/10/22 07:51:44;;;;;;;5.05;2.90;;;13.70;99.90;;;;;;5040218;28;20406;-74
2022/10/22 07:54:10;;;;;;;4.90;2.40;;;13.70;99.90;;;;;;5042265;28;20453;-74
2022/10/22 07:56:35;;;;;;;3.60;2.80;;;13.70;99.90;;;;;;5045838;28;20936;-74
2022/10/22 07:59:01;;;;;;;3.10;2.80;;;13.70;99.90;;;;;;5039469;28;20967;-74
2022/10/22 08:01:26;;;;;;;2.83;2.63;;;13.80;99.90;;;;;;5044980;28;20402;-74
2022/10/22 08:03:52;;;;;;;4.33;2.90;;;13.70;99.90;;;;;;5039790;28;20428;-74
2022/10/22 08:06:18;;;;;;;4.60;2.10;;;13.80;99.90;;;;;;5038503;28;20484;-73
2022/10/22 08:08:45;;;;;;;3.00;2.20;;;13.90;99.90;;;;;;5038630;28;20413;-75
2022/10/22 08:11:11;;;;;;;4.90;2.28;;;14.00;99.90;;;;;;5048926;28;20916;-75
2022/10/22 08:13:37;;;;;;;4.47;2.30;;;14.10;99.90;;;;;;5047195;28;20440;-74
2022/10/22 08:16:02;;;;;;;3.57;2.70;;;14.10;99.90;;;;;;5041344;28;20407;-74
2022/10/22 08:18:28;;;;;;;3.40;3.10;;;14.20;99.90;;;;;;5051071;28;20385;-75
2022/10/22 08:20:54;;;;;;;3.57;2.03;;;14.20;99.90;;;;;;5049733;28;20389;-74
2022/10/22 08:23:20;;;;;;;7.80;2.30;;;14.30;99.90;;;;;;5043333;28;20410;-75
2022/10/22 08:25:46;;;;;;;4.20;2.00;;;14.40;99.90;;;;;;5046113;28;20401;-76
2022/10/22 08:28:11;;;;;;;3.67;2.03;;;14.40;99.90;;;;;;5046042;28;20410;-75
2022/10/22 08:30:37;;;;;;;2.80;2.30;;;14.50;99.90;;;;;;5034627;28;20401;-74
2022/10/22 08:33:04;;;;;;;3.15;2.10;;;14.60;99.90;;;;;;5046917;28;20447;-74
2022/10/22 08:35:30;;;;;;;3.08;1.98;;;14.60;99.90;;;;;;5041009;28;20414;-74
2022/10/22 08:37:56;;;;;;;2.67;2.20;;;14.70;99.90;;;;;;5037496;28;20387;-74
2022/10/22 08:40:32;;;;;;;3.10;2.13;;;14.80;99.90;;;;;;5044149;28;20426;-75
2022/10/22 08:43:06;;;;;;;3.20;2.90;;;14.80;99.90;;;;;;5049465;28;20382;-72
2022/10/22 08:46:04;;;;;;;2.95;2.20;;;14.90;99.90;;;;;;5042603;28;20501;-74
2022/10/22 08:48:57;;;;;;;5.43;2.30;;;15.00;99.90;;;;;;5044541;28;20413;-73
2022/10/22 08:51:26;;;;;;;2.42;2.20;;;15.10;99.90;;;;;;5043709;28;20486;-75
2022/10/22 08:54:07;;;;;;;2.35;2.10;;;15.20;99.90;;;;;;5042364;28;20399;-74
2022/10/22 08:56:35;;;;;;;3.13;2.13;;;15.30;99.90;;;;;;5040549;28;20397;-74
2022/10/22 08:59:11;;;;;;;2.72;1.80;;;15.50;99.90;;;;;;5045506;28;20423;-73
2022/10/22 09:01:47;;;;;;;2.70;1.70;;;15.50;99.90;;;;;;5036791;28;20413;-74
2022/10/22 09:04:40;;;;;;;2.35;1.90;;;15.60;99.90;;;;;;5047934;28;20512;-74
2022/10/22 09:07:08;;;;;;;3.65;1.50;;;15.80;99.90;;;;;;5050305;28;20385;-74
2022/10/22 09:09:41;;;;;;;5.32;1.90;;;16.10;99.90;;;;;;5047994;28;20450;-74
2022/10/22 09:12:10;;;;;;;3.10;1.50;;;16.30;99.90;;;;;;5042523;28;20482;-75
2022/10/22 09:14:35;;;;;;;2.50;1.50;;;16.40;99.90;;;;;;5045569;28;20410;-75
2022/10/22 09:17:15;;;;;;;3.43;1.40;;;16.50;99.90;;;;;;5054920;22;20935;-74
2022/10/22 09:20:00;;;;;;;2.05;1.60;;;16.90;99.90;;;;;;5024360;28;20411;-75
2022/10/22 09:22:28;;;;;;;3.40;1.80;;;17.00;99.90;;;;;;5027016;28;20410;-76
2022/10/22 09:25:00;;;;;;;4.57;1.60;;;17.00;99.90;;;;;;5023042;28;21086;-76
2022/10/22 09:27:29;;;;;;;2.60;2.00;;;17.10;99.90;;;;;;5029835;28;20399;-76
2022/10/22 09:29:54;;;;;;;3.33;1.58;;;17.20;99.90;;;;;;5029768;28;20466;-76
2022/10/22 09:32:20;;;;;;;4.30;1.40;;;17.40;99.90;;;;;;5029395;28;20399;-75
2022/10/22 09:34:47;;;;;;;2.20;1.20;;;17.50;99.90;;;;;;5028593;28;20444;-76
2022/10/22 09:37:16;;;;;;;4.90;1.60;;;17.60;99.90;;;;;;5029751;28;20391;-77
2022/10/22 09:39:49;;;;;;;1.58;1.20;;;17.60;99.90;;;;;;5023732;28;20398;-76
2022/10/22 09:42:18;;;;;;;2.53;1.20;;;17.60;99.90;;;;;;5026000;28;20769;-80
2022/10/22 09:44:50;;;;;;;2.35;1.20;;;17.80;99.90;;;;;;5011127;28;20402;-77
2022/10/22 09:47:27;;;;;;;3.55;1.50;;;17.80;99.90;;;;;;5014836;28;20416;-78
2022/10/22 09:50:08;;;;;;;2.00;1.25;;;17.70;99.90;;;;;;5016026;28;20789;-79
2022/10/22 09:52:34;;;;;;;3.20;1.60;;;17.90;99.90;;;;;;5021756;28;20405;-78
2022/10/22 09:55:17;;;;;;;3.05;1.30;;;17.90;99.90;;;;;;5035308;28;20406;-77
2022/10/22 09:57:43;;;;;;;3.15;1.33;;;17.90;99.90;;;;;;5022656;28;20413;-77
2022/10/22 10:00:11;;;;;;;2.50;1.42;;;17.80;99.90;;;;;;5028634;28;20399;-76
2022/10/22 10:02:41;;;;;;;2.53;1.23;;;17.90;99.90;;;;;;5027276;28;20967;-77
2022/10/22 10:05:07;;;;;;;3.05;1.38;;;18.00;99.90;;;;;;5026282;28;20430;-77
2022/10/22 10:07:35;;;;;;;2.00;1.08;;;18.20;99.90;;;;;;5027096;28;20533;-76
2022/10/22 10:10:01;;;;;;;2.20;1.25;;;18.10;99.90;;;;;;5026067;28;20494;-76
2022/10/22 10:12:45;;;;;;;2.40;1.20;;;18.20;99.90;;;;;;5026662;28;20395;-75
2022/10/22 10:15:27;;;;;;;3.03;1.27;;;18.30;99.90;;;;;;5027943;28;20415;-74
2022/10/22 10:18:21;;;;;;;2.70;1.17;;;18.30;99.90;;;;;;5029844;28;20405;-73
2022/10/22 10:21:13;;;;;;;3.40;1.20;;;18.30;99.90;;;;;;5025377;28;20396;-74
2022/10/22 10:24:07;;;;;;;2.10;1.23;;;18.40;99.90;;;;;;5026768;28;20754;-74
2022/10/22 10:26:52;;;;;;;2.47;1.30;;;18.40;99.90;;;;;;5028765;28;20449;-75
2022/10/22 10:29:21;;;;;;;2.30;1.10;;;18.50;99.90;;;;;;5024174;28;20480;-75
2022/10/22 10:32:17;;;;;;;2.53;1.00;;;18.60;99.90;;;;;;5022249;28;20408;-74
2022/10/22 10:35:14;;;;;;;3.53;1.63;;;18.70;99.90;;;;;;5019006;28;20422;-74
2022/10/22 10:37:52;;;;;;;1.90;1.40;;;18.90;99.90;;;;;;5026354;28;20437;-74
2022/10/22 10:40:24;;;;;;;2.70;1.42;;;18.90;99.90;;;;;;5029700;28;20409;-75
2022/10/22 10:43:03;;;;;;;2.60;1.30;;;19.00;99.90;;;;;;5012975;28;20475;-75
2022/10/22 10:45:57;;;;;;;1.58;0.93;;;19.20;99.90;;;;;;5013910;28;20427;-75
2022/10/22 10:48:50;;;;;;;1.20;0.75;;;19.40;99.90;;;;;;5030180;28;20411;-75
2022/10/22 10:51:43;;;;;;;2.72;1.30;;;19.40;99.90;;;;;;5026968;28;20526;-75
2022/10/22 10:54:29;;;;;;;3.60;1.65;;;19.60;99.90;;;;;;5023717;28;20403;-75
2022/10/22 10:57:10;;;;;;;3.10;1.30;;;19.80;99.90;;;;;;5032222;28;20405;-75
2022/10/22 10:59:45;;;;;;;1.30;1.20;;;20.20;99.90;;;;;;5033280;28;20417;-74
2022/10/22 11:02:48;;;;;;;3.22;1.20;;;20.80;99.90;;;;;;5030054;28;20407;-75
2022/10/22 11:05:25;;;;;;;1.98;1.10;;;21.50;99.90;;;;;;5027727;28;20970;-75
2022/10/22 11:08:19;;;;;;;2.17;0.75;;;22.60;99.90;;;;;;5031305;28;20411;-75
2022/10/22 11:10:59;;;;;;;3.65;1.10;;;22.90;99.90;;;;;;5013128;28;20486;-75
2022/10/22 11:13:40;;;;;;;3.65;1.60;;;23.10;99.90;;;;;;5030750;28;20383;-74
2022/10/22 11:16:30;;;;;;;2.50;1.20;;;23.00;99.90;;;;;;5024623;28;20447;-75
2022/10/22 11:19:11;;;;;;;1.45;1.00;;;23.20;99.90;;;;;;5020356;28;20387;-75
2022/10/22 11:21:42;;;;;;;3.13;1.20;;;23.40;99.90;;;;;;5031848;28;20406;-75
2022/10/22 11:24:36;;;;;;;2.22;1.30;;;23.70;99.90;;;;;;5025559;28;20491;-75
2022/10/22 11:27:15;;;;;;;1.90;1.10;;;23.80;99.90;;;;;;5029354;28;20423;-74
2022/10/22 11:29:44;;;;;;;2.40;1.20;;;24.40;99.80;;;;;;5022279;28;20557;-75
2022/10/22 11:32:20;;;;;;;2.88;1.20;;;24.90;96.70;;;;;;5027626;28;20387;-74
2022/10/22 11:34:53;;;;;;;3.10;1.00;;;24.60;97.50;;;;;;5030821;28;20533;-74
2022/10/22 11:37:19;;;;;;;2.63;1.43;;;24.00;99.90;;;;;;5026538;28;20407;-75
2022/10/22 11:39:52;;;;;;;3.30;1.48;;;24.00;99.30;;;;;;5027889;28;20439;-74
2022/10/22 11:42:42;;;;;;;2.70;1.48;;;23.70;99.90;;;;;;5029152;28;20444;-74
2022/10/22 11:45:14;;;;;;;2.05;1.20;;;23.80;99.90;;;;;;5029194;28;20953;-75
2022/10/22 11:47:52;;;;;;;1.77;1.13;;;23.40;99.90;;;;;;5024974;28;20395;-75
2022/10/22 11:50:24;;;;;;;2.00;1.42;;;24.10;99.90;;;;;;5024162;28;20389;-75
2022/10/22 11:53:02;;;;;;;3.13;1.20;;;24.80;98.90;;;;;;5023721;28;20398;-73
2022/10/22 11:55:44;;;;;;;2.92;1.40;;;24.70;94.80;;;;;;5017183;28;21141;-75
2022/10/22 11:58:29;;;;;;;1.83;1.02;;;25.50;95.10;;;;;;5018629;28;20393;-75
2022/10/22 12:01:01;;;;;;;1.67;1.05;;;24.40;96.10;;;;;;5019451;28;20916;-75
2022/10/22 12:03:29;;;;;;;4.00;1.00;;;25.30;96.60;;;;;;5022487;28;20420;-75
2022/10/22 12:06:18;;;;;;;2.80;1.20;;;25.60;93.10;;;;;;5029659;28;20391;-75
2022/10/22 12:08:53;;;;;;;1.98;0.90;;;26.30;90.50;;;;;;5026469;28;20474;-75
2022/10/22 12:11:18;;;;;;;3.40;1.20;;;25.40;92.50;;;;;;5025325;28;20473;-74
2022/10/22 12:14:25;;;;;;;2.75;1.27;;;25.20;93.30;;;;;;5035908;28;20477;-75
2022/10/22 12:17:07;;;;;;;2.40;1.10;;;24.90;94.60;;;;;;5049049;28;20397;-74
2022/10/22 12:19:45;;;;;;;3.60;1.20;;;23.80;96.80;;;;;;5049291;28;20397;-74
2022/10/22 12:22:32;;;;;;;1.50;1.00;;;23.30;98.00;;;;;;5038097;28;20399;-74
2022/10/22 12:25:08;;;;;;;2.10;1.20;;;23.60;98.40;;;;;;5029725;28;20390;-74
2022/10/22 12:27:37;;;;;;;2.20;1.50;;;23.50;97.50;;;;;;5030995;28;20403;-75
2022/10/22 12:30:18;;;;;;;2.10;1.10;;;22.90;99.90;;;;;;5030985;28;20494;-74
2022/10/22 12:32:44;;;;;;;2.28;0.90;;;23.10;99.40;;;;;;5030331;28;20911;-74
2022/10/22 12:35:18;;;;;;;4.10;1.20;;;22.90;99.90;;;;;;5029626;28;20422;-75
2022/10/22 12:37:47;;;;;;;1.30;1.00;;;22.80;99.90;;;;;;5024496;28;20464;-74
2022/10/22 12:40:20;;;;;;;2.38;1.10;;;22.40;99.90;;;;;;5020660;28;20485;-74
2022/10/22 12:42:48;;;;;;;2.38;1.35;;;22.30;99.90;;;;;;5020645;28;20393;-75
2022/10/22 12:45:14;;;;;;;3.00;1.10;;;22.20;99.90;;;;;;5010925;28;20443;-75
2022/10/22 12:47:43;;;;;;;1.45;1.05;;;22.20;99.90;;;;;;5017589;28;20405;-73
2022/10/22 12:50:17;;;;;;;2.50;1.13;;;22.20;99.90;;;;;;5030575;28;20400;-74
2022/10/22 12:52:43;;;;;;;2.63;1.13;;;22.50;99.90;;;;;;5030320;28;20417;-74
2022/10/22 12:55:13;;;;;;;1.43;0.90;;;22.60;99.90;;;;;;5027222;28;20896;-75
2022/10/22 12:57:39;;;;;;;2.30;0.90;;;22.60;99.40;;;;;;5023446;28;20438;-74
2022/10/22 13:00:25;;;;;;;2.70;0.90;;;22.50;97.20;;;;;;5024031;28;20527;-72
2022/10/22 13:02:52;;;;;;;1.77;0.60;;;22.60;98.00;;;;;;5023229;28;20402;-73
2022/10/22 13:05:32;;;;;;;2.70;1.00;;;22.70;96.00;;;;;;5022166;28;20944;-72
2022/10/22 13:08:16;;;;;;;2.13;1.10;;;22.20;97.50;;;;;;5019931;28;20395;-73
2022/10/22 13:10:50;;;;;;;2.00;0.90;;;22.50;99.60;;;;;;5020573;28;20409;-71